sensor_id;sensor_type;location;lat;lon;timestamp;temperature;humidity
22108;DHT22;11220;48.812;9.128;2023-05-21T00:01:00;19.70;84.50
22108;DHT22;11220;48.812;9.128;2023-05-21T00:03:26;19.60;85.40
22108;DHT22;11220;48.812;9.128;2023-05-21T00:05:53;19.70;84.60
22108;DHT22;11220;48.812;9.128;2023-05-21T00:08:19;20.00;84.70
22108;DHT22;11220;48.812;9.128;2023-05-21T00:10:45;19.60;84.50
22108;DHT22;11220;48.812;9.128;2023-05-21T00:13:10;20.30;85.00
22108;DHT22;11220;48.812;9.128;2023-05-21T00:15:36;19.50;84.50
22108;DHT22;11220;48.812;9.128;2023-05-21T00:18:02;20.30;85.00
22108;DHT22;11220;48.812;9.128;2023-05-21T00:20:28;19.70;84.70
22108;DHT22;11220;48.812;9.128;2023-05-21T00:22:57;19.50;84.60
22108;DHT22;11220;48.812;9.128;2023-05-21T00:25:22;19.80;84.70
22108;DHT22;11220;48.812;9.128;2023-05-21T00:27:48;19.60;84.70
22108;DHT22;11220;48.812;9.128;2023-05-21T00:30:13;20.80;85.50
22108;DHT22;11220;48.812;9.128;2023-05-21T00:32:40;19.50;84.60
22108;DHT22;11220;48.812;9.128;2023-05-21T00:35:06;19.50;84.80
22108;DHT22;11220;48.812;9.128;2023-05-21T00:37:32;19.50;84.60
22108;DHT22;11220;48.812;9.128;2023-05-21T00:40:02;20.40;85.20
22108;DHT22;11220;48.812;9.128;2023-05-21T00:42:29;19.50;84.60
22108;DHT22;11220;48.812;9.128;2023-05-21T00:44:55;19.60;84.80
22108;DHT22;11220;48.812;9.128;2023-05-21T00:47:22;19.50;84.70
22108;DHT22;11220;48.812;9.128;2023-05-21T00:49:48;19.50;84.70
22108;DHT22;11220;48.812;9.128;2023-05-21T00:52:16;19.50;84.70
22108;DHT22;11220;48.812;9.128;2023-05-21T00:54:45;19.40;84.70
22108;DHT22;11220;48.812;9.128;2023-05-21T00:57:13;19.40;84.70
22108;DHT22;11220;48.812;9.128;2023-05-21T00:59:38;19.50;84.80
22108;DHT22;11220;48.812;9.128;2023-05-21T01:02:04;19.40;85.70
22108;DHT22;11220;48.812;9.128;2023-05-21T01:04:33;20.10;85.20
22108;DHT22;11220;48.812;9.128;2023-05-21T01:07:00;19.40;85.20
22108;DHT22;11220;48.812;9.128;2023-05-21T01:09:26;19.30;84.70
22108;DHT22;11220;48.812;9.128;2023-05-21T01:11:53;20.30;85.30
22108;DHT22;11220;48.812;9.128;2023-05-21T01:14:20;19.70;85.00
22108;DHT22;11220;48.812;9.128;2023-05-21T01:16:48;19.90;85.10
22108;DHT22;11220;48.812;9.128;2023-05-21T01:19:18;19.40;84.80
22108;DHT22;11220;48.812;9.128;2023-05-21T01:21:46;19.80;85.10
22108;DHT22;11220;48.812;9.128;2023-05-21T01:24:16;20.00;85.20
22108;DHT22;11220;48.812;9.128;2023-05-21T01:26:41;20.10;85.20
22108;DHT22;11220;48.812;9.128;2023-05-21T01:29:08;19.30;84.70
22108;DHT22;11220;48.812;9.128;2023-05-21T01:31:43;19.40;84.80
22108;DHT22;11220;48.812;9.128;2023-05-21T01:34:11;19.50;84.80
22108;DHT22;11220;48.812;9.128;2023-05-21T01:36:42;19.60;85.90
22108;DHT22;11220;48.812;9.128;2023-05-21T01:39:30;19.30;84.70
22108;DHT22;11220;48.812;9.128;2023-05-21T01:41:57;19.50;84.80
22108;DHT22;11220;48.812;9.128;2023-05-21T01:44:25;19.60;84.90
22108;DHT22;11220;48.812;9.128;2023-05-21T01:46:53;19.40;84.70
22108;DHT22;11220;48.812;9.128;2023-05-21T01:49:21;19.30;84.70
22108;DHT22;11220;48.812;9.128;2023-05-21T01:51:47;19.50;84.90
22108;DHT22;11220;48.812;9.128;2023-05-21T01:54:13;19.40;84.80
22108;DHT22;11220;48.812;9.128;2023-05-21T01:56:39;19.70;85.10
22108;DHT22;11220;48.812;9.128;2023-05-21T01:59:04;19.30;84.80
22108;DHT22;11220;48.812;9.128;2023-05-21T02:01:30;19.60;84.90
22108;DHT22;11220;48.812;9.128;2023-05-21T02:03:56;19.30;84.80
22108;DHT22;11220;48.812;9.128;2023-05-21T02:06:22;19.40;84.80
22108;DHT22;11220;48.812;9.128;2023-05-21T02:08:48;19.80;85.10
22108;DHT22;11220;48.812;9.128;2023-05-21T02:11:13;19.70;85.10
22108;DHT22;11220;48.812;9.128;2023-05-21T02:13:39;19.30;84.80
22108;DHT22;11220;48.812;9.128;2023-05-21T02:16:10;20.00;85.20
22108;DHT22;11220;48.812;9.128;2023-05-21T02:18:40;19.30;84.80
22108;DHT22;11220;48.812;9.128;2023-05-21T02:21:08;19.30;84.80
22108;DHT22;11220;48.812;9.128;2023-05-21T02:23:34;19.30;84.80
22108;DHT22;11220;48.812;9.128;2023-05-21T02:26:00;19.30;84.90
22108;DHT22;11220;48.812;9.128;2023-05-21T02:28:26;19.30;84.80
22108;DHT22;11220;48.812;9.128;2023-05-21T02:30:51;19.30;84.90
22108;DHT22;11220;48.812;9.128;2023-05-21T02:33:17;19.40;85.00
22108;DHT22;11220;48.812;9.128;2023-05-21T02:35:44;19.30;84.90
22108;DHT22;11220;48.812;9.128;2023-05-21T02:38:09;21.00;86.00
22108;DHT22;11220;48.812;9.128;2023-05-21T02:40:38;19.10;84.80
22108;DHT22;11220;48.812;9.128;2023-05-21T02:43:04;19.30;84.90
22108;DHT22;11220;48.812;9.128;2023-05-21T02:45:32;19.20;84.90
22108;DHT22;11220;48.812;9.128;2023-05-21T02:47:58;19.20;84.90
22108;DHT22;11220;48.812;9.128;2023-05-21T02:50:23;19.30;84.90
22108;DHT22;11220;48.812;9.128;2023-05-21T02:52:49;19.20;84.90
22108;DHT22;11220;48.812;9.128;2023-05-21T02:55:14;19.40;85.00
22108;DHT22;11220;48.812;9.128;2023-05-21T02:57:40;19.20;84.90
22108;DHT22;11220;48.812;9.128;2023-05-21T03:00:06;19.70;85.30
22108;DHT22;11220;48.812;9.128;2023-05-21T03:02:32;19.20;84.90
22108;DHT22;11220;48.812;9.128;2023-05-21T03:04:58;19.20;84.90
22108;DHT22;11220;48.812;9.128;2023-05-21T03:07:27;19.20;85.00
22108;DHT22;11220;48.812;9.128;2023-05-21T03:09:53;19.20;85.00
22108;DHT22;11220;48.812;9.128;2023-05-21T03:12:19;19.20;85.00
22108;DHT22;11220;48.812;9.128;2023-05-21T03:14:44;19.20;85.00
22108;DHT22;11220;48.812;9.128;2023-05-21T03:17:10;19.20;85.00
22108;DHT22;11220;48.812;9.128;2023-05-21T03:19:40;19.20;85.00
22108;DHT22;11220;48.812;9.128;2023-05-21T03:22:06;19.30;85.10
22108;DHT22;11220;48.812;9.128;2023-05-21T03:24:32;19.50;85.20
22108;DHT22;11220;48.812;9.128;2023-05-21T03:26:58;19.20;85.10
22108;DHT22;11220;48.812;9.128;2023-05-21T03:29:25;19.20;85.10
22108;DHT22;11220;48.812;9.128;2023-05-21T03:31:52;19.50;85.20
22108;DHT22;11220;48.812;9.128;2023-05-21T03:34:18;19.20;85.10
22108;DHT22;11220;48.812;9.128;2023-05-21T03:36:45;20.10;85.60
22108;DHT22;11220;48.812;9.128;2023-05-21T03:39:11;19.20;85.10
22108;DHT22;11220;48.812;9.128;2023-05-21T03:41:36;19.10;85.00
22108;DHT22;11220;48.812;9.128;2023-05-21T03:44:02;19.10;85.10
22108;DHT22;11220;48.812;9.128;2023-05-21T03:46:28;19.10;85.10
22108;DHT22;11220;48.812;9.128;2023-05-21T03:48:53;19.40;85.30
22108;DHT22;11220;48.812;9.128;2023-05-21T03:51:19;19.00;85.10
22108;DHT22;11220;48.812;9.128;2023-05-21T03:53:45;19.10;85.10
22108;DHT22;11220;48.812;9.128;2023-05-21T03:56:10;19.70;85.50
22108;DHT22;11220;48.812;9.128;2023-05-21T03:58:36;19.10;85.20
22108;DHT22;11220;48.812;9.128;2023-05-21T04:01:02;19.40;85.30
22108;DHT22;11220;48.812;9.128;2023-05-21T04:03:29;20.20;85.80
22108;DHT22;11220;48.812;9.128;2023-05-21T04:05:56;19.00;85.10
22108;DHT22;11220;48.812;9.128;2023-05-21T04:08:22;19.10;85.10
22108;DHT22;11220;48.812;9.128;2023-05-21T04:10:47;19.10;85.10
22108;DHT22;11220;48.812;9.128;2023-05-21T04:13:13;19.80;85.60
22108;DHT22;11220;48.812;9.128;2023-05-21T04:15:39;19.10;85.20
22108;DHT22;11220;48.812;9.128;2023-05-21T04:18:04;19.10;85.20
22108;DHT22;11220;48.812;9.128;2023-05-21T04:20:31;19.30;85.40
22108;DHT22;11220;48.812;9.128;2023-05-21T04:22:56;19.10;85.20
22108;DHT22;11220;48.812;9.128;2023-05-21T04:25:22;19.10;85.20
22108;DHT22;11220;48.812;9.128;2023-05-21T04:27:48;19.10;85.30
22108;DHT22;11220;48.812;9.128;2023-05-21T04:30:14;19.10;85.30
22108;DHT22;11220;48.812;9.128;2023-05-21T04:32:40;19.10;85.30
22108;DHT22;11220;48.812;9.128;2023-05-21T04:35:06;19.10;85.30
22108;DHT22;11220;48.812;9.128;2023-05-21T04:37:31;19.10;85.30
22108;DHT22;11220;48.812;9.128;2023-05-21T04:39:59;19.10;85.30
22108;DHT22;11220;48.812;9.128;2023-05-21T04:42:26;19.40;85.40
22108;DHT22;11220;48.812;9.128;2023-05-21T04:44:51;19.00;85.20
22108;DHT22;11220;48.812;9.128;2023-05-21T04:47:19;19.80;85.70
22108;DHT22;11220;48.812;9.128;2023-05-21T04:49:45;19.10;85.30
22108;DHT22;11220;48.812;9.128;2023-05-21T04:52:11;19.10;85.30
22108;DHT22;11220;48.812;9.128;2023-05-21T04:54:37;19.10;85.30
22108;DHT22;11220;48.812;9.128;2023-05-21T04:57:06;19.80;85.70
22108;DHT22;11220;48.812;9.128;2023-05-21T04:59:31;19.30;85.40
22108;DHT22;11220;48.812;9.128;2023-05-21T05:01:57;19.00;85.30
22108;DHT22;11220;48.812;9.128;2023-05-21T05:04:22;19.00;85.30
22108;DHT22;11220;48.812;9.128;2023-05-21T05:06:48;19.40;85.50
22108;DHT22;11220;48.812;9.128;2023-05-21T05:09:14;19.00;85.30
22108;DHT22;11220;48.812;9.128;2023-05-21T05:11:40;19.00;85.30
22108;DHT22;11220;48.812;9.128;2023-05-21T05:14:06;19.00;85.30
22108;DHT22;11220;48.812;9.128;2023-05-21T05:16:32;19.00;85.30
22108;DHT22;11220;48.812;9.128;2023-05-21T05:18:58;19.00;85.30
22108;DHT22;11220;48.812;9.128;2023-05-21T05:21:23;19.00;85.30
22108;DHT22;11220;48.812;9.128;2023-05-21T05:23:49;19.60;85.80
22108;DHT22;11220;48.812;9.128;2023-05-21T05:26:15;19.00;85.30
22108;DHT22;11220;48.812;9.128;2023-05-21T05:28:40;19.10;85.40
22108;DHT22;11220;48.812;9.128;2023-05-21T05:31:06;19.80;85.80
22108;DHT22;11220;48.812;9.128;2023-05-21T05:33:31;19.10;85.40
22108;DHT22;11220;48.812;9.128;2023-05-21T05:35:57;19.00;85.30
22108;DHT22;11220;48.812;9.128;2023-05-21T05:38:23;19.30;85.60
22108;DHT22;11220;48.812;9.128;2023-05-21T05:40:48;19.10;85.40
22108;DHT22;11220;48.812;9.128;2023-05-21T05:43:14;19.00;85.30
22108;DHT22;11220;48.812;9.128;2023-05-21T05:45:42;19.00;85.30
22108;DHT22;11220;48.812;9.128;2023-05-21T05:48:08;19.00;85.30
22108;DHT22;11220;48.812;9.128;2023-05-21T05:50:33;19.10;85.40
22108;DHT22;11220;48.812;9.128;2023-05-21T05:52:59;19.60;85.70
22108;DHT22;11220;48.812;9.128;2023-05-21T05:55:24;19.00;85.30
22108;DHT22;11220;48.812;9.128;2023-05-21T05:57:51;19.00;85.30
22108;DHT22;11220;48.812;9.128;2023-05-21T06:00:17;19.10;85.40
22108;DHT22;11220;48.812;9.128;2023-05-21T06:02:42;19.10;85.40
22108;DHT22;11220;48.812;9.128;2023-05-21T06:05:08;19.20;85.40
22108;DHT22;11220;48.812;9.128;2023-05-21T06:07:36;19.00;85.30
22108;DHT22;11220;48.812;9.128;2023-05-21T06:10:04;19.10;85.40
22108;DHT22;11220;48.812;9.128;2023-05-21T06:12:30;19.10;85.40
22108;DHT22;11220;48.812;9.128;2023-05-21T06:14:55;19.10;85.40
22108;DHT22;11220;48.812;9.128;2023-05-21T06:17:21;19.20;85.50
22108;DHT22;11220;48.812;9.128;2023-05-21T06:19:46;19.10;85.40
22108;DHT22;11220;48.812;9.128;2023-05-21T06:22:12;19.10;85.40
22108;DHT22;11220;48.812;9.128;2023-05-21T06:24:37;19.10;85.40
22108;DHT22;11220;48.812;9.128;2023-05-21T06:27:03;19.10;85.40
22108;DHT22;11220;48.812;9.128;2023-05-21T06:29:29;19.10;85.60
22108;DHT22;11220;48.812;9.128;2023-05-21T06:31:54;19.30;85.90
22108;DHT22;11220;48.812;9.128;2023-05-21T06:34:20;20.40;86.30
22108;DHT22;11220;48.812;9.128;2023-05-21T06:36:46;20.10;86.10
22108;DHT22;11220;48.812;9.128;2023-05-21T06:39:12;19.20;85.50
22108;DHT22;11220;48.812;9.128;2023-05-21T06:41:38;19.10;85.50
22108;DHT22;11220;48.812;9.128;2023-05-21T06:44:03;19.10;85.50
22108;DHT22;11220;48.812;9.128;2023-05-21T06:46:30;19.10;85.50
22108;DHT22;11220;48.812;9.128;2023-05-21T06:48:55;19.10;85.50
22108;DHT22;11220;48.812;9.128;2023-05-21T06:51:21;19.10;85.50
22108;DHT22;11220;48.812;9.128;2023-05-21T06:53:46;19.10;85.50
22108;DHT22;11220;48.812;9.128;2023-05-21T06:56:12;19.20;85.60
22108;DHT22;11220;48.812;9.128;2023-05-21T06:58:38;19.30;85.70
22108;DHT22;11220;48.812;9.128;2023-05-21T07:01:03;19.70;86.00
22108;DHT22;11220;48.812;9.128;2023-05-21T07:03:29;19.20;85.60
22108;DHT22;11220;48.812;9.128;2023-05-21T07:05:56;19.40;85.80
22108;DHT22;11220;48.812;9.128;2023-05-21T07:08:21;19.20;85.60
22108;DHT22;11220;48.812;9.128;2023-05-21T07:10:48;19.40;85.80
22108;DHT22;11220;48.812;9.128;2023-05-21T07:13:14;19.40;85.80
22108;DHT22;11220;48.812;9.128;2023-05-21T07:15:40;19.20;85.70
22108;DHT22;11220;48.812;9.128;2023-05-21T07:18:06;19.10;85.60
22108;DHT22;11220;48.812;9.128;2023-05-21T07:20:31;19.80;86.00
22108;DHT22;11220;48.812;9.128;2023-05-21T07:22:57;19.20;85.60
22108;DHT22;11220;48.812;9.128;2023-05-21T07:25:23;19.60;85.90
22108;DHT22;11220;48.812;9.128;2023-05-21T07:27:48;19.20;85.70
22108;DHT22;11220;48.812;9.128;2023-05-21T07:30:14;19.20;85.70
22108;DHT22;11220;48.812;9.128;2023-05-21T07:32:40;19.20;85.70
22108;DHT22;11220;48.812;9.128;2023-05-21T07:35:06;19.20;85.70
22108;DHT22;11220;48.812;9.128;2023-05-21T07:37:32;19.20;85.70
22108;DHT22;11220;48.812;9.128;2023-05-21T07:39:58;19.70;86.00
22108;DHT22;11220;48.812;9.128;2023-05-21T07:42:24;19.30;85.80
22108;DHT22;11220;48.812;9.128;2023-05-21T07:44:49;19.20;85.80
22108;DHT22;11220;48.812;9.128;2023-05-21T07:47:15;19.80;86.10
22108;DHT22;11220;48.812;9.128;2023-05-21T07:49:41;19.30;85.90
22108;DHT22;11220;48.812;9.128;2023-05-21T07:52:08;19.60;86.10
22108;DHT22;11220;48.812;9.128;2023-05-21T07:54:34;19.30;85.90
22108;DHT22;11220;48.812;9.128;2023-05-21T07:57:00;19.30;85.90
22108;DHT22;11220;48.812;9.128;2023-05-21T07:59:27;19.60;86.20
22108;DHT22;11220;48.812;9.128;2023-05-21T08:02:13;19.30;86.00
22108;DHT22;11220;48.812;9.128;2023-05-21T08:04:39;19.50;86.20
22108;DHT22;11220;48.812;9.128;2023-05-21T08:07:04;19.20;86.00
22108;DHT22;11220;48.812;9.128;2023-05-21T08:09:30;19.90;86.50
22108;DHT22;11220;48.812;9.128;2023-05-21T08:11:58;19.30;86.10
22108;DHT22;11220;48.812;9.128;2023-05-21T08:14:24;19.40;86.40
22108;DHT22;11220;48.812;9.128;2023-05-21T08:16:50;19.80;86.50
22108;DHT22;11220;48.812;9.128;2023-05-21T08:19:15;19.40;87.50
22108;DHT22;11220;48.812;9.128;2023-05-21T08:21:41;20.30;88.00
22108;DHT22;11220;48.812;9.128;2023-05-21T08:24:07;20.50;87.20
22108;DHT22;11220;48.812;9.128;2023-05-21T08:26:32;19.80;87.30
22108;DHT22;11220;48.812;9.128;2023-05-21T08:28:58;19.30;87.10
22108;DHT22;11220;48.812;9.128;2023-05-21T08:31:31;20.40;87.20
22108;DHT22;11220;48.812;9.128;2023-05-21T08:33:57;20.20;86.70
22108;DHT22;11220;48.812;9.128;2023-05-21T08:36:23;19.50;87.40
22108;DHT22;11220;48.812;9.128;2023-05-21T08:38:52;21.20;87.80
22108;DHT22;11220;48.812;9.128;2023-05-21T08:41:20;20.80;88.00
22108;DHT22;11220;48.812;9.128;2023-05-21T08:43:47;19.80;86.70
22108;DHT22;11220;48.812;9.128;2023-05-21T08:46:19;19.40;86.10
22108;DHT22;11220;48.812;9.128;2023-05-21T08:48:47;19.40;86.20
22108;DHT22;11220;48.812;9.128;2023-05-21T08:51:13;19.60;86.20
22108;DHT22;11220;48.812;9.128;2023-05-21T08:53:39;20.30;86.70
22108;DHT22;11220;48.812;9.128;2023-05-21T08:56:05;19.40;86.10
22108;DHT22;11220;48.812;9.128;2023-05-21T08:58:31;19.50;86.10
22108;DHT22;11220;48.812;9.128;2023-05-21T09:00:58;19.50;86.10
22108;DHT22;11220;48.812;9.128;2023-05-21T09:03:23;19.50;86.10
22108;DHT22;11220;48.812;9.128;2023-05-21T09:05:50;19.50;86.00
22108;DHT22;11220;48.812;9.128;2023-05-21T09:08:34;19.50;86.00
22108;DHT22;11220;48.812;9.128;2023-05-21T09:11:00;19.50;86.00
22108;DHT22;11220;48.812;9.128;2023-05-21T09:13:27;19.50;86.00
22108;DHT22;11220;48.812;9.128;2023-05-21T09:15:55;19.60;86.00
22108;DHT22;11220;48.812;9.128;2023-05-21T09:18:21;19.50;86.00
22108;DHT22;11220;48.812;9.128;2023-05-21T09:20:46;19.50;85.90
22108;DHT22;11220;48.812;9.128;2023-05-21T09:23:16;19.60;85.90
22108;DHT22;11220;48.812;9.128;2023-05-21T09:25:45;20.00;86.20
22108;DHT22;11220;48.812;9.128;2023-05-21T09:28:12;19.60;85.90
22108;DHT22;11220;48.812;9.128;2023-05-21T09:30:48;20.10;86.20
22108;DHT22;11220;48.812;9.128;2023-05-21T09:33:27;19.60;85.90
22108;DHT22;11220;48.812;9.128;2023-05-21T09:35:55;19.60;85.80
22108;DHT22;11220;48.812;9.128;2023-05-21T09:38:22;19.60;85.80
22108;DHT22;11220;48.812;9.128;2023-05-21T09:40:58;19.60;85.80
22108;DHT22;11220;48.812;9.128;2023-05-21T09:43:24;19.90;86.00
22108;DHT22;11220;48.812;9.128;2023-05-21T09:45:54;19.60;85.80
22108;DHT22;11220;48.812;9.128;2023-05-21T09:48:32;19.60;85.80
22108;DHT22;11220;48.812;9.128;2023-05-21T09:51:18;19.60;85.80
22108;DHT22;11220;48.812;9.128;2023-05-21T09:53:54;19.60;85.80
22108;DHT22;11220;48.812;9.128;2023-05-21T09:56:23;19.60;85.70
22108;DHT22;11220;48.812;9.128;2023-05-21T09:58:53;19.60;85.70
22108;DHT22;11220;48.812;9.128;2023-05-21T10:01:19;19.70;85.80
22108;DHT22;11220;48.812;9.128;2023-05-21T10:03:53;20.80;86.40
22108;DHT22;11220;48.812;9.128;2023-05-21T10:06:22;19.70;85.70
22108;DHT22;11220;48.812;9.128;2023-05-21T10:08:52;20.60;86.20
22108;DHT22;11220;48.812;9.128;2023-05-21T10:11:19;19.70;85.70
22108;DHT22;11220;48.812;9.128;2023-05-21T10:13:48;20.00;86.00
22108;DHT22;11220;48.812;9.128;2023-05-21T10:16:17;20.00;86.10
22108;DHT22;11220;48.812;9.128;2023-05-21T10:18:43;19.80;85.90
22108;DHT22;11220;48.812;9.128;2023-05-21T10:21:10;19.80;86.00
22108;DHT22;11220;48.812;9.128;2023-05-21T10:23:36;19.80;86.10
22108;DHT22;11220;48.812;9.128;2023-05-21T10:26:03;20.00;86.30
22108;DHT22;11220;48.812;9.128;2023-05-21T10:28:30;19.80;86.10
22108;DHT22;11220;48.812;9.128;2023-05-21T10:30:57;20.30;86.40
22108;DHT22;11220;48.812;9.128;2023-05-21T10:33:27;19.80;86.20
22108;DHT22;11220;48.812;9.128;2023-05-21T10:35:53;19.90;86.30
22108;DHT22;11220;48.812;9.128;2023-05-21T10:38:19;19.90;86.30
22108;DHT22;11220;48.812;9.128;2023-05-21T10:40:46;20.10;86.30
22108;DHT22;11220;48.812;9.128;2023-05-21T10:48:43;19.90;86.20
22108;DHT22;11220;48.812;9.128;2023-05-21T10:51:22;19.90;86.30
22108;DHT22;11220;48.812;9.128;2023-05-21T10:54:07;19.90;86.30
22108;DHT22;11220;48.812;9.128;2023-05-21T10:57:06;19.90;86.30
22108;DHT22;11220;48.812;9.128;2023-05-21T10:59:42;19.90;86.40
22108;DHT22;11220;48.812;9.128;2023-05-21T11:02:11;20.00;86.50
22108;DHT22;11220;48.812;9.128;2023-05-21T11:04:38;19.90;86.30
22108;DHT22;11220;48.812;9.128;2023-05-21T11:07:06;20.20;86.50
22108;DHT22;11220;48.812;9.128;2023-05-21T11:09:32;20.00;86.40
22108;DHT22;11220;48.812;9.128;2023-05-21T11:11:59;20.40;86.60
22108;DHT22;11220;48.812;9.128;2023-05-21T11:14:36;21.20;87.10
22108;DHT22;11220;48.812;9.128;2023-05-21T11:17:13;20.10;86.40
22108;DHT22;11220;48.812;9.128;2023-05-21T11:19:43;20.10;86.50
22108;DHT22;11220;48.812;9.128;2023-05-21T11:22:26;20.10;86.60
22108;DHT22;11220;48.812;9.128;2023-05-21T11:24:53;20.10;86.50
22108;DHT22;11220;48.812;9.128;2023-05-21T11:27:32;20.10;86.40
22108;DHT22;11220;48.812;9.128;2023-05-21T11:29:58;20.30;86.50
22108;DHT22;11220;48.812;9.128;2023-05-21T11:32:24;20.40;86.40
22108;DHT22;11220;48.812;9.128;2023-05-21T11:34:49;20.10;86.10
22108;DHT22;11220;48.812;9.128;2023-05-21T11:39:42;20.20;86.20
22108;DHT22;11220;48.812;9.128;2023-05-21T11:42:08;20.20;86.10
22108;DHT22;11220;48.812;9.128;2023-05-21T11:44:47;20.30;86.10
22108;DHT22;11220;48.812;9.128;2023-05-21T11:47:14;20.20;85.90
22108;DHT22;11220;48.812;9.128;2023-05-21T11:49:40;20.20;85.80
22108;DHT22;11220;48.812;9.128;2023-05-21T11:52:08;20.80;86.50
22108;DHT22;11220;48.812;9.128;2023-05-21T11:54:40;20.60;86.50
22108;DHT22;11220;48.812;9.128;2023-05-21T11:57:07;20.30;86.40
22108;DHT22;11220;48.812;9.128;2023-05-21T11:59:34;20.60;86.60
22108;DHT22;11220;48.812;9.128;2023-05-21T12:02:00;20.30;86.30
22108;DHT22;11220;48.812;9.128;2023-05-21T12:04:30;20.40;86.30
22108;DHT22;11220;48.812;9.128;2023-05-21T12:06:55;20.60;86.40
22108;DHT22;11220;48.812;9.128;2023-05-21T12:09:23;20.30;86.20
22108;DHT22;11220;48.812;9.128;2023-05-21T12:11:49;20.30;86.20
22108;DHT22;11220;48.812;9.128;2023-05-21T12:14:16;20.30;86.20
22108;DHT22;11220;48.812;9.128;2023-05-21T12:16:42;20.50;86.40
22108;DHT22;11220;48.812;9.128;2023-05-21T12:19:07;20.80;86.50
22108;DHT22;11220;48.812;9.128;2023-05-21T12:21:34;20.30;86.30
22108;DHT22;11220;48.812;9.128;2023-05-21T12:24:00;21.30;86.90
22108;DHT22;11220;48.812;9.128;2023-05-21T12:26:26;20.30;86.30
22108;DHT22;11220;48.812;9.128;2023-05-21T12:28:55;20.30;86.30
22108;DHT22;11220;48.812;9.128;2023-05-21T12:31:22;20.40;86.30
22108;DHT22;11220;48.812;9.128;2023-05-21T12:33:51;20.40;86.40
22108;DHT22;11220;48.812;9.128;2023-05-21T12:36:35;20.30;86.30
22108;DHT22;11220;48.812;9.128;2023-05-21T12:39:02;20.30;86.30
22108;DHT22;11220;48.812;9.128;2023-05-21T12:41:28;20.40;86.40
22108;DHT22;11220;48.812;9.128;2023-05-21T12:43:54;20.30;86.30
22108;DHT22;11220;48.812;9.128;2023-05-21T12:46:19;20.40;86.30
22108;DHT22;11220;48.812;9.128;2023-05-21T12:48:48;20.40;86.30
22108;DHT22;11220;48.812;9.128;2023-05-21T12:51:16;20.60;86.50
22108;DHT22;11220;48.812;9.128;2023-05-21T12:53:42;20.30;86.20
22108;DHT22;11220;48.812;9.128;2023-05-21T12:56:09;20.40;86.40
22108;DHT22;11220;48.812;9.128;2023-05-21T12:58:35;20.40;86.30
22108;DHT22;11220;48.812;9.128;2023-05-21T13:01:07;20.40;86.30
22108;DHT22;11220;48.812;9.128;2023-05-21T13:03:34;20.30;86.20
22108;DHT22;11220;48.812;9.128;2023-05-21T13:06:00;21.10;86.70
22108;DHT22;11220;48.812;9.128;2023-05-21T13:08:26;20.40;86.20
22108;DHT22;11220;48.812;9.128;2023-05-21T13:10:51;20.40;86.20
22108;DHT22;11220;48.812;9.128;2023-05-21T13:13:17;20.60;86.30
22108;DHT22;11220;48.812;9.128;2023-05-21T13:15:43;20.40;86.10
22108;DHT22;11220;48.812;9.128;2023-05-21T13:18:08;20.40;86.10
22108;DHT22;11220;48.812;9.128;2023-05-21T13:20:34;20.40;86.00
22108;DHT22;11220;48.812;9.128;2023-05-21T13:23:00;20.40;86.00
22108;DHT22;11220;48.812;9.128;2023-05-21T13:25:26;20.50;86.00
22108;DHT22;11220;48.812;9.128;2023-05-21T13:27:59;20.50;86.00
22108;DHT22;11220;48.812;9.128;2023-05-21T13:30:25;20.90;86.20
22108;DHT22;11220;48.812;9.128;2023-05-21T13:32:51;21.20;86.40
22108;DHT22;11220;48.812;9.128;2023-05-21T13:35:16;20.50;86.00
22108;DHT22;11220;48.812;9.128;2023-05-21T13:37:42;20.50;86.00
22108;DHT22;11220;48.812;9.128;2023-05-21T13:40:09;20.50;85.90
22108;DHT22;11220;48.812;9.128;2023-05-21T13:42:35;20.50;85.90
22108;DHT22;11220;48.812;9.128;2023-05-21T13:45:06;20.80;86.00
22108;DHT22;11220;48.812;9.128;2023-05-21T13:47:32;20.50;85.90
22108;DHT22;11220;48.812;9.128;2023-05-21T13:49:58;20.50;86.00
22108;DHT22;11220;48.812;9.128;2023-05-21T13:52:23;20.50;85.80
22108;DHT22;11220;48.812;9.128;2023-05-21T13:54:49;20.60;85.80
22108;DHT22;11220;48.812;9.128;2023-05-21T13:57:15;20.50;85.80
22108;DHT22;11220;48.812;9.128;2023-05-21T13:59:41;21.00;86.10
22108;DHT22;11220;48.812;9.128;2023-05-21T14:02:07;20.60;85.90
22108;DHT22;11220;48.812;9.128;2023-05-21T14:04:33;20.60;85.80
22108;DHT22;11220;48.812;9.128;2023-05-21T14:06:59;20.60;85.80
22108;DHT22;11220;48.812;9.128;2023-05-21T14:09:25;20.50;85.70
22108;DHT22;11220;48.812;9.128;2023-05-21T14:11:54;20.90;85.90
22108;DHT22;11220;48.812;9.128;2023-05-21T14:14:20;20.60;85.80
22108;DHT22;11220;48.812;9.128;2023-05-21T14:16:47;20.60;86.70
22108;DHT22;11220;48.812;9.128;2023-05-21T14:19:14;20.60;85.80
22108;DHT22;11220;48.812;9.128;2023-05-21T14:21:39;20.80;85.80
22108;DHT22;11220;48.812;9.128;2023-05-21T14:24:05;20.60;85.70
22108;DHT22;11220;48.812;9.128;2023-05-21T14:26:31;20.70;85.70
22108;DHT22;11220;48.812;9.128;2023-05-21T14:28:56;20.70;85.70
22108;DHT22;11220;48.812;9.128;2023-05-21T14:31:22;20.70;85.60
22108;DHT22;11220;48.812;9.128;2023-05-21T14:33:49;20.70;85.50
22108;DHT22;11220;48.812;9.128;2023-05-21T14:36:14;20.70;85.50
22108;DHT22;11220;48.812;9.128;2023-05-21T14:38:40;21.10;85.70
22108;DHT22;11220;48.812;9.128;2023-05-21T14:41:06;21.10;85.60
22108;DHT22;11220;48.812;9.128;2023-05-21T14:43:32;20.80;85.50
22108;DHT22;11220;48.812;9.128;2023-05-21T14:45:58;20.90;85.50
22108;DHT22;11220;48.812;9.128;2023-05-21T14:48:23;21.20;85.60
22108;DHT22;11220;48.812;9.128;2023-05-21T14:50:49;20.90;85.30
22108;DHT22;11220;48.812;9.128;2023-05-21T14:53:16;21.10;86.40
22108;DHT22;11220;48.812;9.128;2023-05-21T14:55:42;22.30;86.10
22108;DHT22;11220;48.812;9.128;2023-05-21T14:58:08;20.90;85.10
22108;DHT22;11220;48.812;9.128;2023-05-21T15:00:35;20.90;85.00
22108;DHT22;11220;48.812;9.128;2023-05-21T15:03:01;21.00;85.10
22108;DHT22;11220;48.812;9.128;2023-05-21T15:05:27;21.50;85.30
22108;DHT22;11220;48.812;9.128;2023-05-21T15:07:54;21.00;84.90
22108;DHT22;11220;48.812;9.128;2023-05-21T15:10:28;21.60;85.20
22108;DHT22;11220;48.812;9.128;2023-05-21T15:12:53;21.10;84.80
22108;DHT22;11220;48.812;9.128;2023-05-21T15:15:19;21.00;84.70
22108;DHT22;11220;48.812;9.128;2023-05-21T15:17:46;21.10;84.70
22108;DHT22;11220;48.812;9.128;2023-05-21T15:20:12;21.10;84.70
22108;DHT22;11220;48.812;9.128;2023-05-21T15:22:38;21.10;84.70
22108;DHT22;11220;48.812;9.128;2023-05-21T15:25:04;21.10;84.70
22108;DHT22;11220;48.812;9.128;2023-05-21T15:27:30;21.10;84.70
22108;DHT22;11220;48.812;9.128;2023-05-21T15:29:59;21.00;84.60
22108;DHT22;11220;48.812;9.128;2023-05-21T15:32:25;21.10;84.60
22108;DHT22;11220;48.812;9.128;2023-05-21T15:34:50;21.10;84.60
22108;DHT22;11220;48.812;9.128;2023-05-21T15:37:16;21.20;84.70